Thunderstorms From: 25-05-2018 15:00 Until: 26-05-2018 15:00 warning for: Thunderstorms Level: Yellow info button

Although rather usual in this region, locally or potentially dangerous phenomena are expected. (such as local winds, summer thunderstorms, rising streams or high waves) Be aware and pay attention to the latest weather updates, especially if you carry out activities exposed to weather or close to a stream or shoreline. 


Meteo18 Weather Cam more information Meteo18 Weather Cam


warning for Thunderstorms more information blitzortung!


Rain radar more information rain snow radar


Visit our other weather sites:

Template documentation
and downloads

And another site



Weather Underground History page Text

Daily Summary for October 23, 2016 Units:  Metric    English   Both
« Previous Day
Next Day »
Daily Weekly Monthly Yearly Custom
  High: Low: Average:
Temperature: -17.8 °C -15.8 °C -12.9 °C
Dew Point: -17.8 °C -16.2 °C -13.6 °C
Humidity: Humidity % 86 % 92 %
Wind Speed: 0 km/h 0 km/h 3.4 km/h
Wind Gust: 0 km/h - -
Wind:- - ENE
Pressure: 0 hPa 34063.2 hPa -
Precipitation: 20.32 mm    
Historical Graphs
 
 
Tabular Data for October 23, 2016
Time Temperature Dew Point Pressure Wind Wind Speed Wind Gust Humidity Rainfall Rate (Hourly)
-17.8 °C -17.8 °C 0 hPa Calm     Humidity % 0 mm
00:02 -14.2 °C -14.7 °C 34256.2 hPa NNE 2.6 km/h 10.3 km/h 94 % 0 mm
00:12 -14.2 °C -14.8 °C 34256.2 hPa NE 7.7 km/h 10.3 km/h 93 % 0 mm
00:17 -14.2 °C -14.8 °C 34256.2 hPa NNE 2.6 km/h 15.6 km/h 93 % 0 mm
00:22 -14.2 °C -14.8 °C 34246 hPa NNE 7.7 km/h 15.6 km/h 93 % 0 mm
00:37 -14.1 °C -14.9 °C 34246 hPa NNE 12.9 km/h 15.6 km/h 91 % 0 mm
00:42 -14.1 °C -14.8 °C 34246 hPa NE 7.7 km/h 23.3 km/h 91 % 0 mm
00:47 -14.1 °C -14.8 °C 34246 hPa NNE 10.3 km/h 23.3 km/h 91 % 0 mm
00:52 -14.1 °C -14.9 °C 34246 hPa NE 10.3 km/h 18.2 km/h 90 % 0 mm
01:02 -14.2 °C -15 °C 34235.8 hPa NE 12.9 km/h 18.2 km/h 90 % 0 mm
01:12 -14.1 °C -14.9 °C 34235.8 hPa NE 12.9 km/h 18.2 km/h 90 % 0 mm
01:17 -14.1 °C -14.9 °C 34235.8 hPa NNE 7.7 km/h 20.8 km/h 90 % 0 mm
01:27 -14.2 °C -15.1 °C 34235.8 hPa NE 10.3 km/h 20.8 km/h 90 % 0 mm
01:32 -14.2 °C -15.1 °C 34235.8 hPa NNE 15.6 km/h 20.8 km/h 90 % 0 mm
01:42 -14.3 °C -15.1 °C 34222.3 hPa NE 10.3 km/h 23.3 km/h 91 % 0 mm
01:47 -14.3 °C -15.2 °C 34222.3 hPa NE 2.6 km/h 18.2 km/h 90 % 0 mm
01:57 -14.5 °C -15.3 °C 34222.3 hPa North 2.6 km/h 15.6 km/h 91 % 0 mm
02:02 -14.6 °C -15.3 °C 34222.3 hPa Calm   15.6 km/h 91 % 0 mm
02:12 -14.7 °C -15.4 °C 34222.3 hPa NNE 7.7 km/h 7.7 km/h 91 % 0 mm
02:17 -14.7 °C -15.3 °C 34222.3 hPa NE 5.1 km/h 12.9 km/h 92 % 0 mm
02:22 -14.6 °C -15.3 °C 34212.1 hPa ENE 10.3 km/h 12.9 km/h 92 % 0 mm
02:32 -14.4 °C -15.2 °C 34212.1 hPa NE 15.6 km/h 23.3 km/h 91 % 0 mm
02:42 -14.4 °C -15.3 °C 34212.1 hPa NE 10.3 km/h 23.3 km/h 90 % 0 mm
02:47 -14.4 °C -15.3 °C 34212.1 hPa NNE 5.1 km/h 20.8 km/h 90 % 0 mm
03:02 -14.6 °C -15.3 °C 34212.1 hPa NE 7.7 km/h 20.8 km/h 91 % 0 mm
03:12 -14.7 °C -15.4 °C 34198.6 hPa NNE 5.1 km/h 23.3 km/h 91 % 0 mm
03:17 -14.8 °C -15.6 °C 34198.6 hPa NNE 2.6 km/h 15.6 km/h 91 % 0 mm
03:22 -14.9 °C -15.6 °C 34198.6 hPa North 5.1 km/h 15.6 km/h 91 % 0 mm
03:27 -15 °C -15.7 °C 34198.6 hPa Calm   12.9 km/h 91 % 0 mm
03:32 -15.1 °C -15.8 °C 34198.6 hPa NNE 2.6 km/h 12.9 km/h 92 % 0 mm
03:37 -15.2 °C -15.8 °C 34198.6 hPa Calm   5.1 km/h 92 % 0 mm
03:42 -15.2 °C -15.9 °C 34198.6 hPa Calm   5.1 km/h 92 % 0 mm
03:47 -15.3 °C -15.9 °C 34198.6 hPa NNE 5.1 km/h 5.1 km/h 93 % 0 mm
03:52 -15.3 °C -15.9 °C 34198.6 hPa North 5.1 km/h 5.1 km/h 93 % 0 mm
04:02 -15.3 °C -15.8 °C 34188.4 hPa NNE 5.1 km/h 10.3 km/h 94 % 0 mm
04:12 -15.3 °C -15.8 °C 34178.3 hPa NNE 2.6 km/h 10.3 km/h 94 % 0 mm
04:17 -15.4 °C -15.9 °C 34178.3 hPa NNE 2.6 km/h 7.7 km/h 94 % 7.62 mm
04:22 -15.4 °C -15.9 °C 34178.3 hPa North 2.6 km/h 7.7 km/h 94 % 7.62 mm
04:27 -15.4 °C -15.9 °C 34178.3 hPa North 2.6 km/h 7.7 km/h 94 % 7.62 mm
04:32 -15.4 °C -15.9 °C 34178.3 hPa NNE 2.6 km/h 7.7 km/h 94 % 7.62 mm
04:37 -15.3 °C -15.8 °C 34178.3 hPa NNE 5.1 km/h 10.3 km/h 94 % 7.62 mm
04:42 -15.3 °C -15.8 °C 34164.7 hPa Calm   10.3 km/h 94 % 7.62 mm
04:47 -15.3 °C -15.8 °C 34164.7 hPa North 2.6 km/h 10.3 km/h 94 % 7.62 mm
04:57 -15.4 °C -15.9 °C 34164.7 hPa Calm   7.7 km/h 94 % 7.62 mm
05:02 -15.5 °C -16 °C 34164.7 hPa Calm   7.7 km/h 94 % 7.62 mm
05:07 -15.6 °C -16.1 °C 34164.7 hPa Calm   2.6 km/h 94 % 7.62 mm
05:12 -15.6 °C -16.1 °C 34154.6 hPa NNE 7.7 km/h 7.7 km/h 94 % 7.62 mm
05:17 -15.6 °C -16.1 °C 34154.6 hPa NNE 2.6 km/h 7.7 km/h 94 % 0 mm
05:22 -15.7 °C -16.2 °C 34154.6 hPa Calm   7.7 km/h 94 % 0 mm
05:32 -15.7 °C -16.1 °C 34154.6 hPa Calm   7.7 km/h 95 % 0 mm
05:37 -15.7 °C -16.1 °C 34154.6 hPa Calm   5.1 km/h 95 % 0 mm
05:42 -15.7 °C -16.1 °C 34154.6 hPa NNW 2.6 km/h 5.1 km/h 95 % 0 mm
05:47 -15.7 °C -16.1 °C 34154.6 hPa Calm   2.6 km/h 95 % 0 mm
06:02 -15.7 °C -16.1 °C 34154.6 hPa NNE 5.1 km/h 7.7 km/h 95 % 0 mm
06:12 -15.8 °C -16.2 °C 34144.4 hPa Calm   7.7 km/h 95 % 0 mm
06:17 -15.7 °C -16.1 °C 34154.6 hPa Calm   7.7 km/h 95 % 0 mm
06:22 -15.7 °C -16.1 °C 34154.6 hPa Calm   7.7 km/h 95 % 0 mm
06:27 -15.7 °C -16.1 °C 34154.6 hPa Calm   5.1 km/h 95 % 0 mm
06:32 -15.7 °C -16.1 °C 34144.4 hPa North 2.6 km/h 5.1 km/h 95 % 0 mm
06:37 -15.7 °C -16.1 °C 34154.6 hPa Calm   5.1 km/h 95 % 0 mm
06:42 -15.7 °C -16.1 °C 34154.6 hPa Calm   2.6 km/h 95 % 0 mm
06:47 -15.7 °C -16.1 °C 34144.4 hPa North 2.6 km/h 2.6 km/h 95 % 0 mm
06:52 -15.7 °C -16.1 °C 34144.4 hPa North 2.6 km/h 5.1 km/h 95 % 0 mm
07:02 -15.8 °C -16.2 °C 34144.4 hPa Calm   5.1 km/h 95 % 0 mm
07:12 -15.8 °C -16.2 °C 34144.4 hPa Calm   5.1 km/h 95 % 0 mm
07:22 -15.8 °C -16.2 °C 34144.4 hPa NW 2.6 km/h 2.6 km/h 95 % 0 mm
07:32 -15.8 °C -16.2 °C 34144.4 hPa Calm   2.6 km/h 95 % 0 mm
07:37 -15.8 °C -16.2 °C 34144.4 hPa Calm   2.6 km/h 95 % 0 mm
07:42 -15.8 °C -16.2 °C 34144.4 hPa Calm   2.6 km/h 95 % 0 mm
07:47 -15.8 °C -16.2 °C 34144.4 hPa Calm   2.6 km/h 95 % 0 mm
07:52 -15.8 °C -16.1 °C 34144.4 hPa Calm   2.6 km/h 96 % 0 mm
08:02 -15.7 °C -16.1 °C 34144.4 hPa North 2.6 km/h 2.6 km/h 96 % 0 mm
08:12 -15.8 °C -16.2 °C 34144.4 hPa Calm   5.1 km/h 95 % 0 mm
08:17 -15.7 °C -16.1 °C 34144.4 hPa Calm   5.1 km/h 96 % 0 mm
08:22 -15.7 °C -16 °C 34144.4 hPa Calm   5.1 km/h 96 % 0 mm
08:32 -15.6 °C -15.9 °C 34144.4 hPa NNE 7.7 km/h 7.7 km/h 96 % 0 mm
08:37 -15.6 °C -15.9 °C 34130.9 hPa Calm   10.3 km/h 96 % 0 mm
08:42 -15.6 °C -15.9 °C 34144.4 hPa NNE 2.6 km/h 10.3 km/h 96 % 0 mm
08:47 -15.5 °C -15.9 °C 34144.4 hPa NE 2.6 km/h 10.3 km/h 95 % 0 mm
08:52 -15.5 °C -15.9 °C 34144.4 hPa NNE 2.6 km/h 10.3 km/h 95 % 0 mm
09:07 -15.4 °C -15.8 °C 34130.9 hPa NE 7.7 km/h 7.7 km/h 95 % 0 mm
09:12 -15.3 °C -15.7 °C 34144.4 hPa North 5.1 km/h 7.7 km/h 95 % 0 mm
09:17 -15.3 °C -15.7 °C 34144.4 hPa North 2.6 km/h 12.9 km/h 95 % 0 mm
09:22 -15.1 °C -15.5 °C 34144.4 hPa NNE 7.7 km/h 12.9 km/h 95 % 0 mm
09:32 -14.9 °C -15.4 °C 34144.4 hPa NE 7.7 km/h 12.9 km/h 94 % 0 mm
09:37 -14.8 °C -15.3 °C 34144.4 hPa North 5.1 km/h 12.9 km/h 94 % 0 mm
09:42 -14.8 °C -15.3 °C 34144.4 hPa NE 10.3 km/h 12.9 km/h 94 % 0 mm
09:52 -14.6 °C -15.1 °C 34130.9 hPa North 2.6 km/h 12.9 km/h 94 % 0 mm
10:02 -14.3 °C -14.9 °C 34130.9 hPa Calm   10.3 km/h 93 % 0 mm
10:07 -14.3 °C -14.8 °C 34120.7 hPa NNE 2.6 km/h 10.3 km/h 93 % 0 mm
10:12 -14.2 °C -14.8 °C 34120.7 hPa NNE 5.1 km/h 10.3 km/h 93 % 0 mm
10:22 -14 °C -14.6 °C 34120.7 hPa NNE 2.6 km/h 10.3 km/h 93 % 0 mm
10:32 -13.7 °C -14.4 °C 34120.7 hPa NE 10.3 km/h 10.3 km/h 92 % 0 mm
10:37 -13.6 °C -14.4 °C 34120.7 hPa Calm   12.9 km/h 91 % 0 mm
10:42 -13.5 °C -14.2 °C 34120.7 hPa NNE 2.6 km/h 12.9 km/h 92 % 0 mm
10:52 -13.2 °C -13.9 °C 34120.7 hPa NE 5.1 km/h 12.9 km/h 91 % 0 mm
11:02 -13.1 °C -13.9 °C 34120.7 hPa ENE 2.6 km/h 7.7 km/h 90 % 0 mm
11:12 -12.9 °C -13.9 °C 34130.9 hPa ENE 5.1 km/h 12.9 km/h 89 % 0 mm
11:17 -12.9 °C -13.8 °C 34130.9 hPa NE 2.6 km/h 10.3 km/h 90 % 0 mm
11:27 -12.8 °C -13.8 °C 34120.7 hPa NNE 10.3 km/h 10.3 km/h 89 % 0 mm
11:32 -12.8 °C -13.7 °C 34120.7 hPa NE 5.1 km/h 10.3 km/h 89 % 0 mm
11:37 -12.8 °C -13.7 °C 34120.7 hPa NE 2.6 km/h 15.6 km/h 89 % 0 mm
11:47 -12.7 °C -13.8 °C 34120.7 hPa NE 5.1 km/h 12.9 km/h 88 % 0 mm
11:52 -12.7 °C -13.7 °C 34120.7 hPa ENE 7.7 km/h 12.9 km/h 89 % 0 mm
12:02 -12.7 °C -13.6 °C 34120.7 hPa North 2.6 km/h 10.3 km/h 89 % 0 mm
12:12 -12.6 °C -13.5 °C 34107.2 hPa NNE 5.1 km/h 12.9 km/h 90 % 0 mm
12:18 -12.6 °C -13.5 °C 34107.2 hPa NNW 5.1 km/h 12.9 km/h 89 % 0 mm
12:27 -12.3 °C -13.3 °C 34107.2 hPa ENE 5.1 km/h 15.6 km/h 89 % 0 mm
12:32 -12.3 °C -13.3 °C 34107.2 hPa NE 5.1 km/h 15.6 km/h 88 % 0 mm
12:37 -12.2 °C -13.3 °C 34107.2 hPa ENE 5.1 km/h 15.6 km/h 88 % 0 mm
12:42 -12.1 °C -13.2 °C 34107.2 hPa ENE 7.7 km/h 15.6 km/h 88 % 0 mm
12:52 -12 °C -13.1 °C 34107.2 hPa NE 7.7 km/h 15.6 km/h 88 % 0 mm
12:57 -11.9 °C -13.1 °C 34107.2 hPa NE 5.1 km/h 15.6 km/h 87 % 0 mm
13:02 -11.9 °C -13.1 °C 34107.2 hPa NNE 2.6 km/h 15.6 km/h 87 % 0 mm
13:12 -11.8 °C -12.9 °C 34107.2 hPa ENE 2.6 km/h 15.6 km/h 87 % 0 mm
13:22 -11.7 °C -12.8 °C 34097 hPa NE 2.6 km/h 12.9 km/h 87 % 0 mm
13:32 -11.6 °C -12.8 °C 34086.9 hPa NE 5.1 km/h 15.6 km/h 86 % 0 mm
13:42 -11.4 °C -12.6 °C 34086.9 hPa ENE 7.7 km/h 20.8 km/h 87 % 0 mm
13:52 -11.3 °C -12.5 °C 34086.9 hPa East 5.1 km/h 18.2 km/h 87 % 0 mm
13:57 -11.3 °C -12.4 °C 34086.9 hPa Calm   15.6 km/h 87 % 0 mm
14:07 -11.1 °C -12.3 °C 34086.9 hPa ENE 5.1 km/h 15.6 km/h 87 % 0 mm
14:12 -11.1 °C -12.2 °C 34086.9 hPa NE 5.1 km/h 15.6 km/h 87 % 0 mm
14:17 -10.9 °C -12.1 °C 34073.3 hPa NE 7.7 km/h 12.9 km/h 87 % 0 mm
14:22 -10.9 °C -12.2 °C 34086.9 hPa NE 5.1 km/h 12.9 km/h 86 % 0 mm
14:32 -10.9 °C -12.2 °C 34086.9 hPa NE 2.6 km/h 12.9 km/h 86 % 0 mm
14:37 -10.8 °C -12 °C 34086.9 hPa Calm   7.7 km/h 87 % 0 mm
14:42 -10.8 °C -12 °C 34086.9 hPa Calm   7.7 km/h 87 % 0 mm
14:47 -10.8 °C -12 °C 34086.9 hPa NNE 2.6 km/h 5.1 km/h 87 % 0 mm
14:57 -10.9 °C -11.9 °C 34086.9 hPa NE 2.6 km/h 7.7 km/h 88 % 7.62 mm
15:02 -10.9 °C -11.9 °C 34086.9 hPa NNE 2.6 km/h 7.7 km/h 89 % 7.62 mm
15:07 -10.9 °C -11.9 °C 34086.9 hPa NE 10.3 km/h 10.3 km/h 89 % 7.62 mm
15:17 -10.9 °C -11.8 °C 34073.3 hPa ENE 2.6 km/h 10.3 km/h 90 % 12.7 mm
15:27 -10.9 °C -11.8 °C 34073.3 hPa NNE 2.6 km/h 12.9 km/h 90 % 12.7 mm
15:32 -10.9 °C -11.7 °C 34073.3 hPa Calm   12.9 km/h 91 % 12.7 mm
15:42 -10.8 °C -11.6 °C 34073.3 hPa NNE 7.7 km/h 10.3 km/h 91 % 12.7 mm
15:47 -10.8 °C -11.6 °C 34073.3 hPa NE 5.1 km/h 12.9 km/h 91 % 12.7 mm
15:52 -10.7 °C -11.5 °C 34073.3 hPa NE 5.1 km/h 12.9 km/h 91 % 12.7 mm
15:57 -10.7 °C -11.5 °C 34063.2 hPa NNE 7.7 km/h 12.9 km/h 91 % 7.62 mm
16:02 -10.7 °C -11.4 °C 34063.2 hPa ENE 2.6 km/h 12.9 km/h 91 % 7.62 mm
16:12 -10.6 °C -11.3 °C 34073.3 hPa NE 5.1 km/h 12.9 km/h 91 % 7.62 mm
16:17 -10.5 °C -11.4 °C 34073.3 hPa NE 2.6 km/h 10.3 km/h 90 % 0 mm
16:22 -10.5 °C -11.4 °C 34073.3 hPa NNE 5.1 km/h 10.3 km/h 90 % 0 mm
16:27 -10.4 °C -11.3 °C 34073.3 hPa NE 5.1 km/h 10.3 km/h 90 % 0 mm
16:32 -10.4 °C -11.3 °C 34073.3 hPa NE 7.7 km/h 10.3 km/h 90 % 0 mm
16:42 -10.4 °C -11.3 °C 34073.3 hPa ENE 7.7 km/h 10.3 km/h 90 % 0 mm
16:47 -10.4 °C -11.3 °C 34073.3 hPa NE 2.6 km/h 12.9 km/h 90 % 0 mm
16:57 -10.4 °C -11.2 °C 34073.3 hPa ENE 7.7 km/h 10.3 km/h 91 % 0 mm
17:02 -10.4 °C -11.2 °C 34073.3 hPa NNE 2.6 km/h 10.3 km/h 91 % 0 mm
17:07 -10.4 °C -11.2 °C 34073.3 hPa NE 5.1 km/h 10.3 km/h 91 % 0 mm
17:12 -10.4 °C -11.2 °C 34073.3 hPa ENE 2.6 km/h 10.3 km/h 91 % 0 mm
17:17 -10.4 °C -11.2 °C 34073.3 hPa NE 5.1 km/h 12.9 km/h 91 % 0 mm
17:22 -10.4 °C -11.2 °C 34073.3 hPa NE 5.1 km/h 12.9 km/h 91 % 0 mm
17:27 -10.5 °C -11.2 °C 34073.3 hPa Calm   12.9 km/h 92 % 0 mm
17:32 -10.5 °C -11.2 °C 34073.3 hPa NNE 10.3 km/h 12.9 km/h 92 % 0 mm
17:37 -10.6 °C -11.3 °C 34073.3 hPa NNE 5.1 km/h 12.9 km/h 92 % 0 mm
17:42 -10.6 °C -11.3 °C 34073.3 hPa NNE 7.7 km/h 12.9 km/h 92 % 0 mm
17:47 -10.6 °C -11.3 °C 34073.3 hPa NNE 2.6 km/h 10.3 km/h 92 % 0 mm
17:52 -10.6 °C -11.3 °C 34073.3 hPa Calm   10.3 km/h 92 % 0 mm
17:57 -10.6 °C -11.3 °C 34073.3 hPa NE 5.1 km/h 10.3 km/h 92 % 0 mm
18:02 -10.6 °C -11.3 °C 34073.3 hPa North 2.6 km/h 10.3 km/h 92 % 0 mm
18:12 -10.7 °C -11.3 °C 34073.3 hPa Calm   10.3 km/h 93 % 0 mm
18:17 -10.7 °C -11.3 °C 34086.9 hPa Calm   7.7 km/h 93 % 0 mm
18:22 -10.7 °C -11.3 °C 34073.3 hPa Calm     93 % 0 mm
18:32 -10.8 °C -11.4 °C 34086.9 hPa Calm     93 % 0 mm
18:42 -10.8 °C -11.4 °C 34086.9 hPa Calm     93 % 0 mm
18:47 -10.8 °C -11.4 °C 34086.9 hPa Calm     93 % 0 mm
18:57 -10.9 °C -11.4 °C 34086.9 hPa Calm     94 % 0 mm
19:02 -10.9 °C -11.4 °C 34086.9 hPa Calm     94 % 0 mm
19:12 -10.9 °C -11.4 °C 34086.9 hPa Calm     94 % 0 mm
19:17 -10.9 °C -11.4 °C 34086.9 hPa Calm     94 % 7.62 mm
19:22 -10.9 °C -11.4 °C 34086.9 hPa Calm     94 % 7.62 mm
19:32 -11 °C -11.5 °C 34097 hPa Calm   2.6 km/h 94 % 7.62 mm
19:37 -11 °C -11.5 °C 34097 hPa Calm   2.6 km/h 94 % 7.62 mm
19:42 -11 °C -11.5 °C 34097 hPa Calm   2.6 km/h 94 % 7.62 mm
19:47 -11.1 °C -11.6 °C 34097 hPa Calm   2.6 km/h 94 % 7.62 mm
19:52 -11.1 °C -11.5 °C 34097 hPa Calm   2.6 km/h 95 % 7.62 mm
19:57 -11.1 °C -11.5 °C 34097 hPa Calm   2.6 km/h 95 % 7.62 mm
20:02 -11.1 °C -11.5 °C 34097 hPa Calm   2.6 km/h 95 % 7.62 mm
20:12 -11.1 °C -11.6 °C 34097 hPa Calm     95 % 7.62 mm
20:22 -11.2 °C -11.6 °C 34097 hPa Calm   5.1 km/h 95 % 0 mm
20:27 -11.2 °C -11.6 °C 34107.2 hPa Calm   2.6 km/h 95 % 0 mm
20:32 -11.2 °C -11.6 °C 34107.2 hPa Calm   2.6 km/h 95 % 0 mm
20:37 -11.2 °C -11.6 °C 34107.2 hPa Calm   5.1 km/h 95 % 0 mm
20:47 -11.2 °C -11.7 °C 34107.2 hPa WNW 2.6 km/h 5.1 km/h 95 % 0 mm
20:52 -11.2 °C -11.6 °C 34107.2 hPa Calm   5.1 km/h 96 % 0 mm
21:02 -11.2 °C -11.6 °C 34120.7 hPa Calm   5.1 km/h 96 % 0 mm
21:12 -11.2 °C -11.5 °C 34120.7 hPa Calm     96 % 0 mm
21:22 -11.2 °C -11.5 °C 34120.7 hPa Calm     96 % 0 mm
21:32 -11.2 °C -11.5 °C 34130.9 hPa Calm     96 % 0 mm
21:42 -11.1 °C -11.5 °C 34130.9 hPa WNW 2.6 km/h   95 % 0 mm
21:52 -10.9 °C -11.3 °C 34130.9 hPa Calm   7.7 km/h 96 % 0 mm
22:02 -10.9 °C -11.2 °C 34144.4 hPa West 2.6 km/h 5.1 km/h 96 % 0 mm
22:12 -10.8 °C -11.1 °C 34144.4 hPa North 2.6 km/h 5.1 km/h 96 % 0 mm
22:17 -10.8 °C -11.2 °C 34144.4 hPa NW 2.6 km/h 5.1 km/h 95 % 0 mm
22:22 -10.8 °C -11.2 °C 34144.4 hPa Calm   5.1 km/h 95 % 0 mm
22:27 -10.7 °C -11 °C 34144.4 hPa Calm   5.1 km/h 96 % 0 mm
22:37 -10.7 °C -11.2 °C 34144.4 hPa Calm   2.6 km/h 95 % 0 mm
22:42 -10.7 °C -11 °C 34144.4 hPa NW 2.6 km/h 2.6 km/h 96 % 0 mm
22:47 -10.6 °C -11.1 °C 34144.4 hPa Calm   2.6 km/h 95 % 0 mm
22:52 -10.6 °C -11.1 °C 34154.6 hPa North 2.6 km/h 2.6 km/h 95 % 0 mm
22:57 -10.6 °C -11.1 °C 34144.4 hPa North 2.6 km/h 2.6 km/h 95 % 0 mm
23:02 -10.6 °C -11.1 °C 34144.4 hPa NNE 5.1 km/h 5.1 km/h 95 % 0 mm
23:07 -10.7 °C -11.1 °C 34154.6 hPa Calm   5.1 km/h 95 % 0 mm
23:17 -10.6 °C -11.1 °C 34154.6 hPa North 2.6 km/h 5.1 km/h 95 % 0 mm
23:22 -10.6 °C -11.1 °C 34154.6 hPa NNW 2.6 km/h 5.1 km/h 95 % 0 mm
23:27 -10.7 °C -11.1 °C 34154.6 hPa WNW 2.6 km/h 2.6 km/h 95 % 0 mm
23:32 -10.6 °C -10.9 °C 34154.6 hPa NW 2.6 km/h 2.6 km/h 96 % 0 mm
23:37 -10.6 °C -10.9 °C 34144.4 hPa North 2.6 km/h 5.1 km/h 96 % 0 mm
23:42 -10.6 °C -11.1 °C 34144.4 hPa NNE 5.1 km/h 5.1 km/h 95 % 0 mm
23:47 -10.7 °C -11.1 °C 34154.6 hPa Calm   5.1 km/h 95 % 0 mm
23:52 -10.7 °C -11.1 °C 34154.6 hPa Calm   5.1 km/h 95 % 0 mm
23:57 -10.7 °C -11.1 °C 34154.6 hPa Calm   5.1 km/h 96 % 0 mm
Meteo18
Compliments of Weather Underground - 4 mb

Script developed by  Jim McMurry - jmcmurry@mwt.net Adapted for the template by  Wim van der Kuil - Leuven-Template.eu

You find our weather info also at:

European Weather Network

Weather Underground

Equipment we use:

Weather-station
Davis Vue

Weather-program
Meteobridge

Weather-server
Raspberry PI 2 B+

Provider
1 and 1

Davis Vue

Meteobridge

Raspberry PI 2 B+

1 and 1